createdAt,value
2023-04-09T05:01:22.718Z,2.63
2023-04-09T05:03:49.849Z,2.61
2023-04-09T05:06:37.556Z,2.59
2023-04-09T05:09:08.624Z,2.57
2023-04-09T05:11:43.551Z,2.56
2023-04-09T05:14:15.983Z,2.57
2023-04-09T05:16:43.272Z,2.59
2023-04-09T05:19:10.150Z,2.60
2023-04-09T05:21:38.170Z,2.58
2023-04-09T05:24:06.244Z,2.60
2023-04-09T05:26:34.576Z,2.60
2023-04-09T05:29:02.548Z,2.61
2023-04-09T05:31:29.509Z,2.62
2023-04-09T05:34:04.810Z,2.62
2023-04-09T05:36:37.200Z,2.64
2023-04-09T05:39:03.941Z,2.67
2023-04-09T05:41:32.701Z,2.68
2023-04-09T05:44:16.196Z,2.69
2023-04-09T05:46:43.790Z,2.69
2023-04-09T05:49:12.387Z,2.70
2023-04-09T05:51:41.409Z,2.72
2023-04-09T05:54:08.921Z,2.72
2023-04-09T05:56:38.735Z,2.73
2023-04-09T05:59:06.210Z,2.74
2023-04-09T06:01:32.921Z,2.76
2023-04-09T06:04:00.534Z,2.79
2023-04-09T06:06:32.727Z,2.84
2023-04-09T06:09:00.086Z,2.84
2023-04-09T06:11:27.148Z,2.90
2023-04-09T06:13:54.497Z,2.96
2023-04-09T06:16:21.522Z,3.00
2023-04-09T06:18:51.131Z,3.12
2023-04-09T06:21:17.788Z,3.25
2023-04-09T06:23:44.764Z,3.35
2023-04-09T06:26:12.599Z,3.50
2023-04-09T06:28:39.222Z,3.69
2023-04-09T06:31:06.691Z,3.88
2023-04-09T06:33:33.317Z,4.08
2023-04-09T06:36:01.539Z,4.29
2023-04-09T06:38:28.834Z,4.50
2023-04-09T06:40:57.217Z,4.80
2023-04-09T06:43:24.384Z,5.11
2023-04-09T06:45:52.494Z,5.42
2023-04-09T06:48:19.361Z,5.74
2023-04-09T06:50:46.048Z,5.99
2023-04-09T06:53:13.408Z,6.29
2023-04-09T06:55:40.532Z,6.61
2023-04-09T06:58:07.936Z,6.94
2023-04-09T07:00:34.667Z,7.23
2023-04-09T07:03:03.954Z,7.53
2023-04-09T07:05:31.284Z,7.78
2023-04-09T07:07:58.441Z,8.07
2023-04-09T07:10:25.223Z,8.39
2023-04-09T07:12:52.396Z,8.71
2023-04-09T07:15:19.009Z,9.03
2023-04-09T07:17:46.283Z,9.31
2023-04-09T07:20:12.976Z,9.55
2023-04-09T07:22:40.151Z,9.86
2023-04-09T07:25:07.309Z,10.17
2023-04-09T07:27:35.435Z,10.46
2023-04-09T07:30:03.173Z,10.67
2023-04-09T07:32:30.235Z,10.83
2023-04-09T07:34:57.540Z,11.02
2023-04-09T07:37:24.632Z,11.22
2023-04-09T07:39:53.991Z,11.36
2023-04-09T07:42:21.128Z,11.55
2023-04-09T07:44:47.726Z,11.68
2023-04-09T07:47:15.225Z,11.89
2023-04-09T07:49:42.084Z,12.01
2023-04-09T07:52:09.530Z,12.18
2023-04-09T07:54:36.516Z,12.32
2023-04-09T07:57:03.835Z,12.32
2023-04-09T07:59:31.659Z,12.41
2023-04-09T08:01:59.808Z,12.50
2023-04-09T08:04:27.365Z,12.65
2023-04-09T08:06:54.775Z,12.63
2023-04-09T08:09:21.549Z,12.44
2023-04-09T08:11:49.924Z,12.38
2023-04-09T08:14:18.100Z,12.49
2023-04-09T08:16:47.589Z,12.45
2023-04-09T08:19:16.593Z,12.45
2023-04-09T08:21:44.357Z,12.44
2023-04-09T08:24:11.983Z,12.63
2023-04-09T08:26:39.923Z,12.77
2023-04-09T08:29:07.760Z,12.78
2023-04-09T08:31:36.931Z,12.92
2023-04-09T08:34:03.824Z,13.05
2023-04-09T08:36:32.171Z,13.23
2023-04-09T08:39:00.498Z,13.15
2023-04-09T08:41:29.713Z,12.94
2023-04-09T08:43:59.196Z,12.93
2023-04-09T08:46:27.945Z,13.09
2023-04-09T08:48:55.093Z,13.08
2023-04-09T08:51:24.198Z,13.09
2023-04-09T08:53:59.691Z,13.13
2023-04-09T08:56:29.425Z,13.36
2023-04-09T08:58:56.681Z,13.35
2023-04-09T09:01:31.634Z,13.36
2023-04-09T09:04:06.641Z,13.36
2023-04-09T09:06:39.642Z,13.16
2023-04-09T09:09:26.763Z,13.01
2023-04-09T09:11:53.947Z,12.86
2023-04-09T09:14:21.011Z,12.68
2023-04-09T09:16:57.635Z,12.50
2023-04-09T09:19:25.033Z,12.62
2023-04-09T09:21:58.851Z,12.89
2023-04-09T09:24:26.514Z,12.96
2023-04-09T09:26:55.942Z,12.85
2023-04-09T09:29:23.100Z,12.74
2023-04-09T09:31:52.617Z,12.70
2023-04-09T09:34:21.290Z,12.68
2023-04-09T09:36:48.686Z,12.69
2023-04-09T09:39:18.136Z,12.83
2023-04-09T09:41:46.460Z,12.84
2023-04-09T09:44:31.848Z,12.80
2023-04-09T09:46:58.914Z,12.80
2023-04-09T09:49:26.212Z,12.73
2023-04-09T09:51:56.849Z,12.82
2023-04-09T09:54:26.187Z,12.93
2023-04-09T09:56:55.770Z,12.94
2023-04-09T09:59:30.617Z,12.90
2023-04-09T10:02:03.800Z,12.88
2023-04-09T10:04:36.202Z,12.86
2023-04-09T10:07:05.774Z,12.79
2023-04-09T10:09:36.186Z,12.84
2023-04-09T10:12:06.907Z,12.77
2023-04-09T10:14:36.337Z,12.80
2023-04-09T10:17:04.112Z,12.78
2023-04-09T10:19:42.220Z,12.80
2023-04-09T10:22:11.911Z,12.83
2023-04-09T10:24:39.914Z,12.86
2023-04-09T10:27:16.396Z,12.88
2023-04-09T10:29:49.004Z,13.01
2023-04-09T10:32:26.368Z,13.03
2023-04-09T10:34:58.061Z,13.11
2023-04-09T10:37:27.097Z,13.20
2023-04-09T10:39:54.512Z,13.27
2023-04-09T10:42:30.266Z,13.32
2023-04-09T10:45:11.407Z,13.20
2023-04-09T10:47:41.328Z,13.19
2023-04-09T10:50:17.664Z,13.12
2023-04-09T10:52:44.782Z,13.01
2023-04-09T10:55:51.438Z,13.08
2023-04-09T10:58:18.388Z,13.14
2023-04-09T11:00:50.744Z,13.16
2023-04-09T11:03:20.865Z,13.08
2023-04-09T11:05:52.920Z,13.08
2023-04-09T11:08:21.979Z,13.07
2023-04-09T11:10:52.058Z,13.12
2023-04-09T11:13:20.952Z,13.12
2023-04-09T11:15:48.262Z,13.21
2023-04-09T11:18:19.876Z,13.18
2023-04-09T11:20:47.425Z,13.22
2023-04-09T11:23:15.567Z,13.20
2023-04-09T11:25:42.821Z,13.21
2023-04-09T11:28:09.460Z,13.15
2023-04-09T11:30:39.819Z,13.19
2023-04-09T11:33:09.103Z,13.21
2023-04-09T11:35:39.409Z,13.23
2023-04-09T11:38:09.437Z,13.28
2023-04-09T11:40:37.231Z,13.36
2023-04-09T11:43:03.905Z,13.43
2023-04-09T11:45:33.107Z,13.66
2023-04-09T11:48:00.037Z,13.82
2023-04-09T11:50:27.459Z,13.92
2023-04-09T11:52:54.364Z,14.11
2023-04-09T11:55:29.697Z,14.23
2023-04-09T11:58:01.201Z,14.28
2023-04-09T12:00:29.782Z,14.37
2023-04-09T12:03:03.306Z,14.32
2023-04-09T12:05:32.532Z,14.18
2023-04-09T12:08:07.044Z,14.14
2023-04-09T12:10:38.361Z,14.19
2023-04-09T12:13:10.382Z,14.34
2023-04-09T12:15:39.324Z,14.37
2023-04-09T12:18:09.701Z,14.39
2023-04-09T12:20:40.217Z,14.31
2023-04-09T12:23:07.857Z,14.35
2023-04-09T12:25:36.971Z,14.45
2023-04-09T12:28:06.442Z,14.45
2023-04-09T12:30:35.450Z,14.51
2023-04-09T12:33:04.663Z,14.63
2023-04-09T12:35:31.778Z,14.61
2023-04-09T12:37:59.665Z,14.38
2023-04-09T12:40:26.616Z,14.18
2023-04-09T12:42:54.520Z,14.12
2023-04-09T12:45:21.867Z,14.03
2023-04-09T12:47:49.580Z,14.01
2023-04-09T12:50:16.529Z,13.97
2023-04-09T12:52:43.520Z,13.93
2023-04-09T12:55:11.509Z,13.66
2023-04-09T12:57:39.921Z,13.61
2023-04-09T13:00:07.825Z,13.56
2023-04-09T13:02:35.796Z,13.54
2023-04-09T13:05:04.287Z,13.61
2023-04-09T13:07:31.713Z,13.70
2023-04-09T13:09:58.557Z,13.80
2023-04-09T13:12:26.122Z,13.88
2023-04-09T13:14:54.683Z,14.01
2023-04-09T13:17:22.332Z,14.07
2023-04-09T13:19:50.174Z,13.99
2023-04-09T13:22:17.719Z,13.98
2023-04-09T13:24:44.269Z,14.03
2023-04-09T13:27:11.540Z,14.08
2023-04-09T13:29:38.777Z,14.23
2023-04-09T13:32:07.859Z,14.34
2023-04-09T13:34:35.234Z,14.44
2023-04-09T13:37:03.807Z,14.51
2023-04-09T13:39:30.844Z,14.55
2023-04-09T13:41:57.778Z,14.65
2023-04-09T13:44:25.987Z,14.63
2023-04-09T13:46:53.992Z,14.76
2023-04-09T13:49:21.029Z,14.79
2023-04-09T13:51:49.610Z,14.71
2023-04-09T13:54:16.863Z,14.75
2023-04-09T13:56:45.031Z,14.79
2023-04-09T13:59:11.882Z,14.72
2023-04-09T14:01:39.100Z,14.62
2023-04-09T14:04:06.052Z,14.57
2023-04-09T14:06:33.393Z,14.57
2023-04-09T14:08:59.943Z,14.51
2023-04-09T14:11:27.208Z,14.59
2023-04-09T14:13:55.307Z,14.63
2023-04-09T14:16:22.804Z,14.51
2023-04-09T14:18:49.386Z,14.42
2023-04-09T14:21:17.160Z,14.37
2023-04-09T14:23:43.985Z,14.45
2023-04-09T14:26:11.541Z,14.61
2023-04-09T14:28:38.314Z,14.65
2023-04-09T14:31:05.933Z,14.56
2023-04-09T14:33:32.486Z,14.53
2023-04-09T14:35:59.879Z,14.60
2023-04-09T14:38:26.828Z,14.65
2023-04-09T14:40:54.303Z,14.61
2023-04-09T14:43:20.949Z,14.46
2023-04-09T14:45:49.171Z,14.48
2023-04-09T14:48:16.027Z,14.43
2023-04-09T14:50:43.510Z,14.46
2023-04-09T14:53:10.231Z,14.50
2023-04-09T14:55:37.343Z,14.44
2023-04-09T14:58:07.107Z,14.43
2023-04-09T15:00:34.797Z,14.38
2023-04-09T15:03:01.571Z,14.41
2023-04-09T15:05:28.901Z,14.31
2023-04-09T15:07:55.887Z,14.20
2023-04-09T15:10:23.233Z,14.19
2023-04-09T15:12:49.810Z,14.19
2023-04-09T15:15:17.300Z,14.21
2023-04-09T15:17:44.229Z,14.25
2023-04-09T15:20:11.606Z,14.24
2023-04-09T15:22:38.208Z,14.17
2023-04-09T15:25:05.787Z,14.10
2023-04-09T15:27:32.685Z,14.01
2023-04-09T15:29:59.943Z,14.01
2023-04-09T15:32:29.889Z,14.02
2023-04-09T15:34:57.275Z,14.06
2023-04-09T15:37:23.951Z,14.06
2023-04-09T15:39:51.350Z,14.05
2023-04-09T15:42:22.408Z,14.05
2023-04-09T15:44:50.735Z,14.00
2023-04-09T15:47:26.423Z,13.98
2023-04-09T15:49:56.237Z,13.92
2023-04-09T15:52:22.784Z,13.85
2023-04-09T15:54:50.041Z,13.64
2023-04-09T15:57:16.935Z,13.58
2023-04-09T15:59:44.230Z,13.57
2023-04-09T16:02:11.102Z,13.58
2023-04-09T16:04:38.509Z,13.50
2023-04-09T16:07:05.112Z,13.33
2023-04-09T16:09:32.603Z,13.32
2023-04-09T16:11:59.189Z,13.30
2023-04-09T16:14:27.142Z,13.20
2023-04-09T16:16:54.000Z,13.19
2023-04-09T16:19:21.680Z,13.22
2023-04-09T16:21:49.473Z,13.18
2023-04-09T16:24:16.790Z,13.14
2023-04-09T16:26:44.518Z,13.09
2023-04-09T16:29:12.995Z,13.00
2023-04-09T16:31:42.061Z,13.03
2023-04-09T16:34:09.208Z,13.06
2023-04-09T16:36:37.130Z,13.08
2023-04-09T16:39:05.549Z,12.99
2023-04-09T16:41:33.550Z,12.96
2023-04-09T16:44:02.156Z,12.89
2023-04-09T16:46:29.066Z,12.90
2023-04-09T16:48:56.174Z,12.92
2023-04-09T16:51:22.729Z,12.93
2023-04-09T16:53:50.342Z,12.85
2023-04-09T16:56:16.974Z,12.80
2023-04-09T16:58:44.855Z,12.78
2023-04-09T17:01:12.017Z,12.75
2023-04-09T17:03:42.979Z,12.71
2023-04-09T17:06:09.667Z,12.69
2023-04-09T17:08:36.809Z,12.62
2023-04-09T17:11:03.510Z,12.60
2023-04-09T17:13:32.155Z,12.62
2023-04-09T17:15:59.344Z,12.59
2023-04-09T17:18:26.053Z,12.50
2023-04-09T17:20:53.679Z,12.32
2023-04-09T17:23:21.666Z,12.27
2023-04-09T17:25:49.015Z,12.22
2023-04-09T17:28:16.980Z,12.20
2023-04-09T17:30:46.100Z,12.19
2023-04-09T17:33:14.011Z,12.11
2023-04-09T17:35:42.340Z,12.07
2023-04-09T17:38:09.083Z,12.01
2023-04-09T17:40:36.320Z,11.94
2023-04-09T17:43:03.160Z,11.84
2023-04-09T17:45:30.065Z,11.74
2023-04-09T17:47:57.208Z,11.64
2023-04-09T17:50:24.160Z,11.55
2023-04-09T17:52:50.875Z,11.46
2023-04-09T17:55:18.004Z,11.37
2023-04-09T17:57:44.761Z,11.26
2023-04-09T18:00:12.379Z,11.16
2023-04-09T18:02:52.107Z,11.06
2023-04-09T18:05:19.747Z,10.95
2023-04-09T18:07:46.367Z,10.87
2023-04-09T18:10:13.717Z,10.78
2023-04-09T18:12:40.329Z,10.68
2023-04-09T18:15:07.654Z,10.57
2023-04-09T18:17:34.268Z,10.47
2023-04-09T18:20:01.745Z,10.37
2023-04-09T18:22:28.352Z,10.26
2023-04-09T18:24:55.779Z,10.15
2023-04-09T18:27:22.408Z,10.04
2023-04-09T18:29:49.705Z,9.93
2023-04-09T18:32:19.430Z,9.83
2023-04-09T18:34:48.419Z,9.72
2023-04-09T18:37:15.750Z,9.60
2023-04-09T18:39:42.969Z,9.53
2023-04-09T18:42:10.139Z,9.43
2023-04-09T18:44:37.880Z,9.32
2023-04-09T18:47:06.340Z,9.24
2023-04-09T18:49:33.834Z,9.13
2023-04-09T18:52:01.440Z,9.05
2023-04-09T18:54:28.779Z,8.92
2023-04-09T18:56:57.669Z,8.85
2023-04-09T18:59:24.359Z,8.75
2023-04-09T19:01:51.323Z,8.67
2023-04-09T19:04:17.974Z,8.57
2023-04-09T19:06:46.807Z,8.50
2023-04-09T19:09:13.380Z,8.43
2023-04-09T19:11:40.704Z,8.36
2023-04-09T19:14:07.436Z,8.25
2023-04-09T19:16:34.745Z,8.19
2023-04-09T19:19:01.984Z,8.10
2023-04-09T19:21:29.376Z,8.03
2023-04-09T19:23:56.301Z,7.98
2023-04-09T19:26:23.417Z,7.90
2023-04-09T19:28:49.999Z,7.83
2023-04-09T19:31:17.310Z,7.76
2023-04-09T19:33:43.976Z,7.69
2023-04-09T19:36:13.175Z,7.61
2023-04-09T19:38:40.402Z,7.56
2023-04-09T19:41:07.682Z,7.50
2023-04-09T19:43:34.402Z,7.45
2023-04-09T19:46:06.926Z,7.39
2023-04-09T19:48:33.505Z,7.35
2023-04-09T19:51:01.053Z,7.31
2023-04-09T19:53:27.922Z,7.25
2023-04-09T19:55:55.135Z,7.19
2023-04-09T19:58:22.181Z,7.14
2023-04-09T20:00:50.142Z,7.07
2023-04-09T20:03:17.095Z,7.02
2023-04-09T20:05:44.084Z,6.96
2023-04-09T20:08:14.353Z,6.93
2023-04-09T20:10:45.184Z,6.86
2023-04-09T20:13:11.788Z,6.82
2023-04-09T20:15:39.553Z,6.76
2023-04-09T20:18:06.204Z,6.74
2023-04-09T20:20:33.617Z,6.71
2023-04-09T20:23:00.795Z,6.64
2023-04-09T20:25:34.598Z,6.62
2023-04-09T20:28:02.392Z,6.55
